Kezdőlap
METAR-TAF:

METAR-TAF

Repülőterek :

Pécs, Magyarország

földrajzi szélesség: 46-06N, földrajzi hosszúság: 018-14E, magasság: 201 m

Jelenlegi meteorológiai megfigyelések

A jelentés 36 perccel ezelõtt készült, 09:45 UTC
Kelet-északkeleti szél 8 kt
Hőmérséklet 8°C
Páratartalom 61%
Légköri nyomás 1030 hPa
Látótávolság 10 km, vagy több
felhőtlen 1500 m magasságban, és nincs gomolyfelhõ

METAR: LHPP 160945Z 07008KT CAVOK 08/01 Q1030

Idő: 11:21 (10:21 UTC)

Előrejelzés

A jelentés 2 órával és 6 perccel ezelõtt készült, 08:15 UTC
Az előrejelzés 16-én 09 óra UTC és 16-én 18 óra UTC között érvényes
Északkeleti szél 13 kt
Látótávolság 10 km, vagy több
felhőtlen 1500 m magasságban, és nincs gomolyfelhõ

TAF: LHPP 160815Z 1609/1618 04013KT CAVOK

Meteorológiai megfigyelések és előrejelzések több, mint 4000 repülőtéren (METAR és TAF jelentéseket).

A térképen piros és sárga pontok jelzik az elérhető meteorológiai állomásokat.

Mozgassa az egeret a pont fölött, hogy megjelenjen az állomás neve.

Azután kattintson az időjárási megfigyelések és előrejelzések megtekintéséhez.

A térkép megváltoztatása: kattintson a fekete keresztel jelölt zöld gombra ráközelítéshez, a vonallal jelölt zöld gombra távolításhoz, vagy a zöld nyilakra a szomszédos térképek eléréséhez.


METAR-TAF: